Aérodrome :
LOGIN :

S'inscrire | Disclaimer

   EN    FR    IT 

 










Légende :    VFR   VFR Marginal   IFR   IFR Intensif   IFR Très Intensif
Visi : 
Plafond : 
>= 8 km
>= 3000ft
5 à 8 km
1000 à 3000 ft
1500m à 5 km
500 à 1000 ft
800 à 1500m
200 à 500 ft
< 800m
< 200 ft
Symboles :   Orages  Brouillard  Fortes neiges  Fortes précipitations  Vent > 20 kt
SIGMETs :   Divers  Orages  Givrage  Turbulence  Onde Orograph.  Cendres Volcan.






- Altitude de l'aérodrome : 13 ft
- Code IATA : OST


EBOS - Oostend bruges Int.

DERNIER METAR :
  • 140520Z 31005KT 2500 BR SCT003 BKN006 19/17 Q1012 BECMG 6000 SCT006

METARs EXPIRÉS :
  • 140450Z 31006KT 1400 R08/1900N R26/P2000N BR FEW002 BKN003 19/18 Q1012 TEMPO 0500 FG BECMG 6000 SCT003
  • 140420Z 31005KT 1200 R08/P2000N R26/P2000N BR SCT003 SCT006 19/18 Q1012 TEMPO 0500 FG BKN003
  • 140350Z 27003KT 0400 R08/1000U R26/0550U FG FEW004 SCT006 18/17 Q1011 TEMPO 0200 FG BKN006
  • 140320Z 24002KT 0150 R08/0225N R26/0275N FG FEW007 18/18 Q1011 TEMPO 0400 FG
  • 140250Z VRB02KT 0200 R08/0800N R26/0650D FG NSC 17/17 Q1011 TEMPO 0400 FG

TAF TAF EBOS
Valide du 14 à 06h jusqu'au 15 à 12h UTC


140500Z 1406/1512 VRB03KT 3000 BR SCT008 SCT030
PROB40
TEMPO 1406/1409 BKN006
PROB30
TEMPO 1406/1407 1200 BCFG BKN002
BECMG 1408/1410 28010KT 8000 NSW
PROB30
TEMPO 1412/1419 VRB18G30KT 3500 SHRA TSRA BKN014 SCT030CB
PROB40
TEMPO 1419/1506 BKN012
BECMG 1500/1502 22004KT
PROB30
TEMPO 1503/1507 2500 BR



MET'MAP, la Météo Aéronautique d'un coup d'oeil ! - Copyright ORBIFLY Décembre 2007 - Disclaimer

ORBIFLY MET'MAP TEAM :

Programmation & Développement : Alexandra Zaïnal
Sur une idée originale de : Baudouin d'Aumeries
Assistance à la programmation : Marc-Olivier Méhu
Soutien technique & logistique : Manuel Goepfert

Contact : metmap@orbifly.com




SOURCES & CREDITS :

   NOAA